WetterOnline ( https://www.wetteronline.de )

Wetter aktuell Erxleben

Aktuelles Wetter: Magdeburg (85m)

6-stündlich | Neueste Meldungen
Ortszeit Temperatur Wetter
Mi, 18.05. 8:00 16.5° C bedeckt
Mi, 18.05. 2:00 14.4° C wolkig
Di, 17.05. 20:00 19.2° C wolkenlos
Di, 17.05. 14:00 19.4° C bedeckt
Di, 17.05. 8:00 16.7° C bedeckt
Di, 17.05. 2:00 16.8° C bedeckt
Mo, 16.05. 20:00 21.2° C bedeckt
Mo, 16.05. 14:00 26.1° C wolkig
Ortszeit Temperatur Wetter
Mi, 18.05. 11:30 21.4° C wolkig
Mi, 18.05. 11:20 21.4° C wolkig
Mi, 18.05. 11:10 21.4° C bedeckt
Mi, 18.05. 11:00 20.5° C wolkig
Mi, 18.05. 10:50 20.5° C bewölkt
Mi, 18.05. 10:40 19.8° C wolkig
Mi, 18.05. 10:30 19.7° C wolkenlos
Mi, 18.05. 10:00 19.3° C leicht bewölkt
Mi, 18.05. 9:30 18.6° C bewölkt
Mi, 18.05. 9:00 17.5° C wolkig
Mi, 18.05. 8:30 17.2° C leicht bewölkt
Ortszeit Relative Feuchte Sichtweite
Mi, 18.05. 8:00 85% 20 km
Mi, 18.05. 2:00 98% 14 km
Di, 17.05. 20:00 80% 35 km
Di, 17.05. 14:00 80% 10 km
Di, 17.05. 8:00 89% 12 km
Di, 17.05. 2:00 93% 16 km
Mo, 16.05. 20:00 68% 45 km
Mo, 16.05. 14:00 35% 55 km
Ortszeit Relative Feuchte Sichtweite
Mi, 18.05. 11:30 64% 20 km
Mi, 18.05. 11:20 64% -
Mi, 18.05. 11:10 67% -
Mi, 18.05. 11:00 68% 24 km
Mi, 18.05. 10:50 68% -
Mi, 18.05. 10:40 69% -
Mi, 18.05. 10:30 70% 21 km
Mi, 18.05. 10:00 74% 27 km
Mi, 18.05. 9:30 78% 25 km
Mi, 18.05. 9:00 81% 22 km
Mi, 18.05. 8:30 84% 23 km
Ortszeit Niederschlagsmenge Niederschlagsart
Mi, 18.05. 8:00 0.0 l/m2 in 12 Std. -
Mi, 18.05. 2:00 0.0 l/m2 in 6 Std. -
Di, 17.05. 20:00 7 l/m2 in 12 Std. Regen
Di, 17.05. 14:00 0.7 l/m2 in 6 Std. Regen
Di, 17.05. 8:00 4 l/m2 in 12 Std. Regen
Di, 17.05. 2:00 3 l/m2 in 6 Std. Regen
Mo, 16.05. 20:00 0.1 l/m2 in 12 Std. Regen, Niederschlag
Mo, 16.05. 14:00 0.0 l/m2 in 6 Std. -
Ortszeit Niederschlagsmenge Niederschlagsart
Mi, 18.05. 11:30 0.0 l/m2 in 1 Std. -
Mi, 18.05. 11:20 keine Meldung -
Mi, 18.05. 11:10 keine Meldung -
Mi, 18.05. 11:00 0.0 l/m2 in 1 Std. -
Mi, 18.05. 10:50 keine Meldung -
Mi, 18.05. 10:40 keine Meldung -
Mi, 18.05. 10:30 0.0 l/m2 in 1 Std. -
Mi, 18.05. 10:00 0.0 l/m2 in 1 Std. -
Mi, 18.05. 9:30 0.0 l/m2 in 1 Std. -
Mi, 18.05. 9:00 0.0 l/m2 in 1 Std. -
Mi, 18.05. 8:30 0.0 l/m2 in 1 Std. -
Ortszeit Stärke Spitze Richtung
km/h Bft. km/h Grad Sektor
Mi, 18.05. 8:00 7 2 14 130° SO
Mi, 18.05. 2:00 4 1 11 130° SO
Di, 17.05. 20:00 6 1 20 170° S
Di, 17.05. 14:00 6 1 22 60° NO
Di, 17.05. 8:00 9 2 22 290° W
Di, 17.05. 2:00 9 2 17 240° SW
Mo, 16.05. 20:00 4 1 25 290° W
Mo, 16.05. 14:00 11 2 32 140° SO
Ortszeit Stärke Spitze Richtung
km/h Bft. km/h Grad Sektor
Mi, 18.05. 11:30 13 3 26 150° SO
Mi, 18.05. 11:20 13 3 - 150° SO
Mi, 18.05. 11:10 11 2 - 140° SO
Mi, 18.05. 11:00 13 3 26 140° SO
Mi, 18.05. 10:50 13 3 - 140° SO
Mi, 18.05. 10:40 14 3 - 140° SO
Mi, 18.05. 10:30 13 3 24 140° SO
Mi, 18.05. 10:00 13 3 24 140° SO
Mi, 18.05. 9:30 11 2 18 140° SO
Mi, 18.05. 9:00 9 2 20 140° SO
Mi, 18.05. 8:30 11 2 22 140° SO
Ortszeit Untergrenze Bedeckung Gattung
total tief tief mittel hoch
Mi, 18.05. 8:00 3000 m 8/8 8/8 - - -
Mi, 18.05. 2:00 2400 m 8/8 1/8 - - -
Di, 17.05. 20:00 - 0/8 0/8 - - -
Di, 17.05. 14:00 780 m 8/8 8/8 - - -
Di, 17.05. 8:00 270 m 8/8 8/8 - - -
Di, 17.05. 2:00 510 m 8/8 8/8 - - -
Mo, 16.05. 20:00 3300 m 8/8 8/8 - - -
Mo, 16.05. 14:00 5700 m 7/8 3/8 - - -
Ortszeit Bedeckungsgrad in Achtel und Wolkenuntergrenze
Mi, 18.05. 11:30 6(4800m)
Mi, 18.05. 11:20 6(4800m)
Mi, 18.05. 11:10 8
Mi, 18.05. 11:00 7(4800m)
Mi, 18.05. 10:50 7(4800m)
Mi, 18.05. 10:40 5
Mi, 18.05. 10:30 keine Wolken
Mi, 18.05. 10:00 1(10500m) 3(10500m)
Mi, 18.05. 9:30 6(4200m) 7(4800m)
Mi, 18.05. 9:00 5(4500m) 6(5700m)
Mi, 18.05. 8:30 1(3000m)
Ortszeit Luftdruck NN (hPa) Tendenz (hPa in 3 Std.)
Mi, 18.05. 8:00 1025 + 1,1
Mi, 18.05. 2:00 1023 + 0,6
Di, 17.05. 20:00 1021 + 0,1
Di, 17.05. 14:00 1021 0,0
Di, 17.05. 8:00 1020 + 1,3
Di, 17.05. 2:00 1018 + 0,8
Mo, 16.05. 20:00 1015 + 0,2
Mo, 16.05. 14:00 1016 - 1,2
Ortszeit Luftdruck NN (hPa) Tendenz (hPa in 3 Std.)
Mi, 18.05. 11:30 1025 + 0,3
Mi, 18.05. 11:20 1025 keine Meldung
Mi, 18.05. 11:10 1025 keine Meldung
Mi, 18.05. 11:00 1025 + 0,3
Mi, 18.05. 10:50 1025 keine Meldung
Mi, 18.05. 10:40 1025 keine Meldung
Mi, 18.05. 10:30 1025 + 0,5
Mi, 18.05. 10:00 1025 + 0,6
Mi, 18.05. 9:30 1025 + 0,7
Mi, 18.05. 9:00 1025 + 0,9
Mi, 18.05. 8:30 1025 + 0,9
Ortszeit Schneehöhe (cm)
Mi, 18.05. 8:00 0
Mi, 18.05. 2:00 0
Di, 17.05. 20:00 0
Di, 17.05. 14:00 0
Di, 17.05. 8:00 0
Di, 17.05. 2:00 0
Mo, 16.05. 20:00 0
Mo, 16.05. 14:00 0
Ortszeit Schneehöhe (cm)
Mi, 18.05. 11:30 0
Mi, 18.05. 11:20 0
Mi, 18.05. 11:10 0
Mi, 18.05. 11:00 0
Mi, 18.05. 10:50 0
Mi, 18.05. 10:40 0
Mi, 18.05. 10:30 0
Mi, 18.05. 10:00 0
Mi, 18.05. 9:30 0
Mi, 18.05. 9:00 0
Mi, 18.05. 8:30 0
Link zu dieser Seite / Seite empfehlen

Das Wetter in ...